Terminal Aerodrome Forecast
Issued by NWS

Home | Current Version | Previous Version | Graphics & Text | Print | Product List | Glossary On
Versions: 1 2 3 4 5 6 7 8 9 10 11 12 13 14 15
000
FTUS43 KMPX 191128
TAFRWF
TAF
KRWF 191128Z 1912/2012 15010KT P6SM BKN250
     FM192100 16015G21KT P6SM SKC
     FM200400 15013KT 5SM BR BKN250 WS020/19046KT
     FM200800 16013KT 2SM BR VCSH OVC005 WS018/20048KT=

USA.gov is the U.S. government's official web portal to all federal, state and local government web resources and services.